Time;durP1;ratioP1;P1;durP2;ratioP2;P2;SDS_P1;SDS_P2;PMS_P1;PMS_P2;Temp;Humidity;BMP_temperature;BMP_pressure;BME280_temperature;BME280_humidity;BME280_pressure;Samples;Min_cycle;Max_cycle;Signal;HPM_P1;HPM_P2
2022/08/15 00:02:00;;;;;;;11.93;5.60;;;;;;;22.47;66.92;98117.66;6216000;23;20142;-90
2022/08/15 00:05:06;;;;;;;;;;;;;;;;;;;;;
2022/08/15 00:07:54;;;;;;;;;;;;;;;;;;;;;
2022/08/15 00:14:57;;;;;;;9.67;5.50;;;;;;;22.46;66.04;98118.66;6134311;23;20165;-90
2022/08/15 00:18:18;;;;;;;;;;;;;;;;;;;;;
2022/08/15 00:21:29;;;;;;;8.50;5.07;;;;;;;22.33;66.73;98115.78;6209069;23;20596;-90
2022/08/15 00:24:12;;;;;;;12.27;6.20;;;;;;;22.21;67.85;98120.72;6216959;23;20256;-90
2022/08/15 00:27:35;;;;;;;;;;;;;;;;;;;;;
2022/08/15 00:30:46;;;;;;;;;;;;;;;;;;;;;
2022/08/15 00:33:58;;;;;;;;;;;;;;;;;;;;;
2022/08/15 00:43:55;;;;;;;10.87;4.83;;;;;;;21.97;70.64;98118.22;6053018;23;20189;-90
2022/08/15 00:46:38;;;;;;;;;;;;;;;;;;;;;
2022/08/15 00:49:21;;;;;;;7.13;3.87;;;;;;;22.12;70.30;98112.97;6142801;23;20238;-90
2022/08/15 00:52:27;;;;;;;;;;;;;;;;;;;;;
2022/08/15 00:58:21;;;;;;;8.40;4.70;;;;;;;22.24;70.16;98112.38;6079999;23;20595;-90
2022/08/15 01:03:57;;;;;;;9.23;4.50;;;;;;;22.21;70.26;98125.22;6199965;23;20156;-90
2022/08/15 01:06:33;;;;;;;10.10;4.00;;;;;;;22.13;70.68;98109.28;6216101;23;20156;-90
2022/08/15 01:09:06;;;;;;;9.53;4.47;;;;;;;22.12;70.86;98112.97;6216799;23;20263;-90
2022/08/15 01:11:44;;;;;;;7.77;4.50;;;;;;;22.22;70.27;98116.22;6215807;23;20177;-90
2022/08/15 01:14:24;;;;;;;8.37;5.00;;;;;;;22.29;69.99;98114.50;6214956;23;20305;-90
2022/08/15 01:17:11;;;;;;;8.10;4.47;;;;;;;22.30;70.57;98114.28;6214939;23;20142;-90
2022/08/15 01:23:36;;;;;;;12.10;5.10;;;;;;;22.23;71.20;98132.03;6154184;23;20694;-90
2022/08/15 01:26:47;;;;;;;7.40;4.43;;;;;;;22.24;70.85;98127.53;6128988;23;20203;-90
2022/08/15 01:29:47;;;;;;;;;;;;;;;;;;;;;
2022/08/15 01:32:43;;;;;;;;;;;;;;;;;;;;;
2022/08/15 01:39:41;;;;;;;;;;;;;;;;;;;;;
2022/08/15 01:45:32;;;;;;;;;;;;;;;;;;;;;
2022/08/15 01:55:29;;;;;;;10.50;5.50;;;;;;;21.83;66.33;98149.13;6173130;23;20164;-91
2022/08/15 02:02:12;;;;;;;;;;;;;;;;;;;;;
2022/08/15 02:04:43;;;;;;;10.10;5.17;;;;;;;21.66;65.96;98144.88;6124831;23;20235;-90
2022/08/15 02:11:21;;;;;;;;;;;;;;;;;;;;;
2022/08/15 02:14:23;;;;;;;11.00;4.20;;;;;;;21.59;66.06;98149.25;6125017;23;20238;-90
2022/08/15 02:21:08;;;;;;;;;;;;;;;;;;;;;
2022/08/15 02:24:29;;;;;;;;;;;;;;;;;;;;;
2022/08/15 02:27:55;;;;;;;7.23;4.50;;;;;;;21.26;67.18;98159.19;6214034;23;20595;-90
2022/08/15 02:30:49;;;;;;;8.00;4.27;;;;;;;21.25;67.45;98178.03;6215844;23;20164;-91
2022/08/15 02:33:55;;;;;;;;;;;;;;;;;;;;;
2022/08/15 02:39:46;;;;;;;12.47;4.07;;;;;;;21.07;69.25;98174.75;6201399;23;20165;-90
2022/08/15 02:42:24;;;;;;;9.43;4.20;;;;;;;21.11;68.92;98179.56;6216258;23;20146;-90
2022/08/15 02:44:57;;;;;;;7.97;4.23;;;;;;;21.08;68.91;98182.56;6217567;23;20183;-90
2022/08/15 02:48:02;;;;;;;;;;;;;;;;;;;;;
2022/08/15 02:50:29;;;;;;;8.70;4.40;;;;;;;21.13;68.77;98196.22;6217100;23;20601;-90
2022/08/15 02:52:55;;;;;;;8.60;4.67;;;;;;;21.15;69.40;98191.53;6217179;23;20477;-90
2022/08/15 02:55:21;;;;;;;10.10;5.00;;;;;;;21.12;72.12;98189.22;6217714;23;20156;-90
2022/08/15 02:58:22;;;;;;;11.33;6.03;;;;;;;21.24;72.76;98197.69;6217718;23;20150;-91
2022/08/15 03:00:58;;;;;;;15.33;6.00;;;;;;;21.32;73.20;98189.69;6241458;23;20232;-90
2022/08/15 03:03:26;;;;;;;12.90;5.77;;;;;;;21.32;73.99;98187.84;6216217;23;20146;-90
2022/08/15 03:05:52;;;;;;;10.37;5.90;;;;;;;21.34;74.35;98177.00;6216041;23;20555;-90
2022/08/15 03:08:26;;;;;;;12.00;6.73;;;;;;;21.33;74.80;98184.16;6217398;23;20146;-90
2022/08/15 03:11:14;;;;;;;13.00;6.93;;;;;;;21.33;75.71;98186.03;6216711;23;20253;-90
2022/08/15 03:13:40;;;;;;;11.23;6.37;;;;;;;21.31;76.30;98177.34;6217520;23;20221;-90
2022/08/15 03:16:13;;;;;;;14.00;6.77;;;;;;;21.33;75.57;98173.50;6215744;23;20157;-91
2022/08/15 03:18:42;;;;;;;14.27;6.73;;;;;;;21.46;75.44;98170.31;6215974;23;20156;-90
2022/08/15 03:21:14;;;;;;;12.77;6.33;;;;;;;21.47;75.19;98176.44;6217417;23;20156;-89
2022/08/15 03:23:50;;;;;;;11.77;6.03;;;;;;;21.42;75.47;98166.31;6216454;23;20599;-90
2022/08/15 03:26:21;;;;;;;11.80;6.27;;;;;;;21.38;75.90;98168.47;6216014;23;20173;-89
2022/08/15 03:28:47;;;;;;;14.03;6.67;;;;;;;21.48;75.71;98170.13;6216872;23;20145;-90
2022/08/15 03:31:13;;;;;;;15.60;6.30;;;;;;;21.47;75.33;98165.78;6216032;23;20154;-90
2022/08/15 03:33:41;;;;;;;12.87;7.27;;;;;;;21.41;75.80;98173.47;6216885;23;20605;-90
2022/08/15 03:36:10;;;;;;;11.70;6.40;;;;;;;21.44;75.65;98162.47;6215799;23;20162;-90
2022/08/15 03:38:38;;;;;;;11.67;6.30;;;;;;;21.48;75.31;98167.47;6216733;23;20157;-89
2022/08/15 03:41:08;;;;;;;9.77;5.77;;;;;;;21.39;72.87;98159.50;6217186;23;20146;-89
2022/08/15 03:43:36;;;;;;;10.40;5.37;;;;;;;21.34;71.54;98167.19;6217186;23;20134;-90
2022/08/15 03:46:04;;;;;;;9.43;5.20;;;;;;;21.31;70.87;98177.34;6215632;23;20292;-89
2022/08/15 03:48:33;;;;;;;13.80;5.37;;;;;;;21.25;70.22;98178.03;6216845;23;20152;-89
2022/08/15 03:51:01;;;;;;;8.80;4.60;;;;;;;21.29;69.70;98184.69;6216817;23;20228;-89
2022/08/15 03:53:29;;;;;;;8.07;4.57;;;;;;;21.30;69.25;98181.03;6216909;23;20162;-89
2022/08/15 03:55:59;;;;;;;14.63;5.93;;;;;;;21.32;69.17;98189.69;6216177;23;20149;-89
2022/08/15 03:58:24;;;;;;;11.37;5.10;;;;;;;21.30;69.04;98181.03;6215953;23;20214;-90
2022/08/15 04:00:50;;;;;;;10.53;5.83;;;;;;;21.34;68.84;98172.50;6215756;23;20307;-90
2022/08/15 04:03:22;;;;;;;10.80;5.77;;;;;;;21.32;69.19;98179.84;6215827;23;20161;-89
2022/08/15 04:05:59;;;;;;;10.00;5.90;;;;;;;21.31;69.19;98174.66;6216536;23;20213;-90
2022/08/15 04:08:30;;;;;;;12.33;6.07;;;;;;;21.34;68.81;98179.66;6215607;23;20146;-90
2022/08/15 04:11:33;;;;;;;12.07;6.13;;;;;;;21.31;69.22;98174.66;6216996;23;20134;-90
2022/08/15 04:14:02;;;;;;;16.23;5.17;;;;;;;21.33;69.24;98172.69;6215609;23;20172;-89
2022/08/15 04:16:27;;;;;;;11.60;5.67;;;;;;;21.28;69.19;98173.19;6216796;23;20168;-89
2022/08/15 04:18:57;;;;;;;10.17;4.97;;;;;;;21.32;69.18;98171.00;6216510;23;20149;-90
2022/08/15 04:21:25;;;;;;;11.37;5.57;;;;;;;21.39;68.61;98172.81;6215301;23;20220;-90
2022/08/15 04:23:59;;;;;;;8.73;5.13;;;;;;;21.43;68.42;98171.47;6215314;23;20158;-89
2022/08/15 04:26:26;;;;;;;9.57;5.73;;;;;;;21.50;68.81;98165.44;6215932;23;20207;-90
2022/08/15 04:28:51;;;;;;;10.93;6.20;;;;;;;21.52;68.89;98174.09;6216836;23;20462;-90
2022/08/15 04:31:22;;;;;;;10.13;5.70;;;;;;;21.54;69.26;98161.44;6215205;23;20161;-90
2022/08/15 04:33:50;;;;;;;12.83;6.17;;;;;;;21.54;69.89;98164.91;6215765;23;20146;-91
2022/08/15 04:36:18;;;;;;;11.93;6.20;;;;;;;21.56;70.71;98165.59;6215501;23;20597;-90
2022/08/15 04:38:56;;;;;;;10.80;5.77;;;;;;;21.65;70.65;98163.72;6215228;23;20154;-89
2022/08/15 04:41:30;;;;;;;14.77;6.63;;;;;;;21.71;70.60;98163.03;6216996;23;20126;-89
2022/08/15 04:43:58;;;;;;;14.07;6.83;;;;;;;21.80;70.38;98162.78;6215304;23;20138;-90
2022/08/15 04:46:33;;;;;;;10.80;5.73;;;;;;;21.77;69.98;98181.00;6215029;23;20578;-90
2022/08/15 04:49:08;;;;;;;12.47;5.87;;;;;;;21.82;70.21;98175.97;6216006;23;20142;-90
2022/08/15 04:51:37;;;;;;;16.17;5.93;;;;;;;21.87;70.76;98173.66;6214445;23;20263;-90
2022/08/15 04:54:08;;;;;;;14.00;7.30;;;;;;;21.95;70.77;98168.28;6216565;23;20158;-89
2022/08/15 04:56:59;;;;;;;;;;;;;;;;;;;;;
2022/08/15 04:59:44;;;;;;;14.50;7.57;;;;;;;22.09;71.26;98167.50;6216163;23;20233;-90
2022/08/15 05:02:44;;;;;;;14.33;7.43;;;;;;;22.26;71.39;98161.06;6215327;23;20146;-90
2022/08/15 05:05:34;;;;;;;;;;;;;;;;;;;;;
2022/08/15 05:08:35;;;;;;;;;;;;;;;;;;;;;
2022/08/15 05:11:08;;;;;;;12.60;6.90;;;;;;;22.55;71.09;98157.66;6216725;23;20221;-89
2022/08/15 05:13:43;;;;;;;15.07;6.37;;;;;;;22.60;70.74;98164.13;6215201;23;20168;-90
2022/08/15 05:19:52;;;;;;;14.27;5.97;;;;;;;22.81;69.75;98167.97;6205096;23;20231;-90
2022/08/15 05:22:44;;;;;;;;;;;;;;;;;;;;;
2022/08/15 05:25:21;;;;;;;10.43;6.30;;;;;;;22.99;69.13;98169.31;6216359;23;20212;-90
2022/08/15 05:27:56;;;;;;;13.37;5.20;;;;;;;23.18;68.83;98175.97;6214675;23;20561;-90
2022/08/15 05:48:17;;;;;;;;;;;;;;;;;;;;;
2022/08/15 06:12:08;;;;;;;4.27;2.60;;;;;;;24.37;61.13;98222.03;6094820;23;20188;-91
2022/08/15 10:02:45;;;;;;;;;;;;;;;;;;;;;
2022/08/15 11:20:43;;;;;;;3.25;1.65;;;;;;;34.74;29.88;98126.38;6020792;23;20169;-91
2022/08/15 11:27:46;;;;;;;;;;;;;;;;;;;;;
2022/08/15 11:31:20;;;;;;;;;;;;;;;;;;;;;
2022/08/15 11:34:56;;;;;;;;;;;;;;;;;;;;;
2022/08/15 11:41:37;;;;;;;5.00;2.10;;;;;;;34.96;29.07;98114.31;5712073;25;20170;-90
2022/08/15 11:54:29;;;;;;;2.47;1.58;;;;;;;36.18;28.50;98100.25;5968282;23;20184;-91
2022/08/15 11:57:07;;;;;;;5.90;2.20;;;;;;;35.82;28.66;98100.38;6010734;23;20206;-92
2022/08/15 11:59:35;;;;;;;3.50;2.08;;;;;;;36.03;28.47;98102.13;6019829;23;20165;-88
2022/08/15 12:02:08;;;;;;;3.70;2.10;;;;;;;36.12;28.36;98098.59;6068060;23;20157;-89
2022/08/15 12:04:48;;;;;;;4.00;2.35;;;;;;;36.27;28.04;98098.59;6046719;23;20156;-90
2022/08/15 12:07:27;;;;;;;9.20;2.95;;;;;;;36.33;27.86;98102.16;6072057;23;20199;-90
2022/08/15 12:09:53;;;;;;;3.30;1.73;;;;;;;36.09;28.49;98099.13;6096634;23;20157;-89
2022/08/15 12:12:48;;;;;;;4.35;2.40;;;;;;;36.34;27.29;98101.09;6096373;23;20184;-91
2022/08/15 12:15:20;;;;;;;5.40;2.20;;;;;;;36.42;27.83;98095.09;6096738;23;20159;-89
2022/08/15 12:18:06;;;;;;;5.10;2.15;;;;;;;36.28;28.10;98093.97;6106588;23;20584;-88
2022/08/15 12:24:03;;;;;;;3.70;1.95;;;;;;;36.58;27.79;98094.03;6166113;23;20170;-90
2022/08/15 12:26:49;;;;;;;3.33;2.10;;;;;;;36.65;27.72;98089.13;6160807;23;20186;-91
2022/08/15 12:29:20;;;;;;;4.10;2.20;;;;;;;36.73;27.03;98095.94;6185299;23;20173;-90
2022/08/15 12:31:47;;;;;;;4.05;2.10;;;;;;;36.84;27.53;98086.66;6186052;23;20186;-88
2022/08/15 12:34:40;;;;;;;3.97;2.15;;;;;;;36.61;27.58;98088.00;6186246;23;20641;-90
2022/08/15 12:37:22;;;;;;;;;;;;;;;;;;;;;
2022/08/15 12:40:03;;;;;;;4.50;2.08;;;;;;;36.54;27.50;98081.19;6186894;23;20237;-89
2022/08/15 12:42:32;;;;;;;5.82;2.17;;;;;;;36.71;27.33;98081.75;6160702;23;20177;-89
2022/08/15 12:45:00;;;;;;;3.42;1.83;;;;;;;36.39;27.16;98079.25;6186253;23;20163;-89
2022/08/15 12:47:31;;;;;;;3.05;2.08;;;;;;;36.73;27.43;98072.19;6160472;23;20189;-89
2022/08/15 12:49:58;;;;;;;3.75;2.17;;;;;;;36.16;27.55;98079.78;6187119;23;20139;-90
2022/08/15 12:52:24;;;;;;;3.10;1.67;;;;;;;36.46;27.67;98068.88;6159967;23;20268;-89
2022/08/15 12:55:01;;;;;;;;;;;;;;;;;;;;;
2022/08/15 12:57:43;;;;;;;2.92;1.67;;;;;;;36.54;26.73;98076.56;6187111;23;20237;-91
2022/08/15 13:00:17;;;;;;;3.60;1.70;;;;;;;36.32;27.39;98078.72;6161306;23;20170;-90
2022/08/15 13:02:49;;;;;;;3.70;1.90;;;;;;;36.16;26.78;98079.78;6186812;23;20418;-89
2022/08/15 13:05:32;;;;;;;5.47;1.90;;;;;;;36.26;27.02;98075.16;6160580;23;20154;-89
2022/08/15 13:07:58;;;;;;;3.63;2.10;;;;;;;36.44;27.08;98068.34;6185947;23;20138;-89
2022/08/15 13:10:23;;;;;;;4.25;2.35;;;;;;;36.72;27.35;98073.25;6160008;23;20163;-88
2022/08/15 13:12:49;;;;;;;2.88;1.75;;;;;;;36.94;26.45;98073.84;6161131;23;20602;-90
2022/08/15 13:15:19;;;;;;;3.65;1.88;;;;;;;36.91;25.90;98068.88;6160156;23;20162;-90
2022/08/15 13:17:47;;;;;;;3.00;1.80;;;;;;;36.70;26.49;98070.00;6160301;23;20291;-89
2022/08/15 13:25:47;;;;;;;3.45;2.05;;;;;;;36.71;27.12;98063.47;6186254;23;20530;-89
2022/08/15 13:28:13;;;;;;;4.50;1.90;;;;;;;36.68;26.97;98058.53;6186457;23;20150;-88
2022/08/15 13:30:42;;;;;;;3.83;1.92;;;;;;;36.87;27.09;98059.59;6185806;23;20150;-90
2022/08/15 13:33:07;;;;;;;3.63;1.48;;;;;;;36.77;26.93;98064.25;6159482;23;20205;-89
2022/08/15 13:35:33;;;;;;;3.72;2.10;;;;;;;36.52;27.14;98061.53;6186160;23;20594;-89
2022/08/15 13:38:01;;;;;;;3.85;2.17;;;;;;;36.57;25.88;98059.63;6185799;23;20150;-88
2022/08/15 13:40:28;;;;;;;2.97;1.98;;;;;;;36.55;26.40;98056.34;6186277;23;20234;-89
2022/08/15 13:42:54;;;;;;;5.30;2.00;;;;;;;36.95;25.95;98050.06;6184294;23;20164;-89
2022/08/15 13:45:22;;;;;;;2.95;1.65;;;;;;;36.76;25.90;98057.97;6160051;23;20177;-89
2022/08/15 13:47:55;;;;;;;3.45;1.70;;;;;;;36.74;26.25;98062.09;6185960;23;20155;-90
2022/08/15 13:50:21;;;;;;;3.50;2.00;;;;;;;36.78;26.35;98061.25;6160247;23;20481;-91
2022/08/15 13:52:49;;;;;;;2.72;1.50;;;;;;;37.18;25.92;98048.63;6185277;23;20182;-91
2022/08/15 13:55:20;;;;;;;5.68;2.13;;;;;;;37.48;26.46;98064.94;6184337;23;20189;-89
2022/08/15 13:57:46;;;;;;;3.53;1.83;;;;;;;37.44;25.27;98050.22;6185631;23;20131;-90
2022/08/15 14:00:15;;;;;;;3.13;1.75;;;;;;;37.54;25.78;98053.72;6159538;23;20154;-89
2022/08/15 14:02:44;;;;;;;3.92;1.95;;;;;;;37.23;25.00;98054.09;6159445;23;20150;-89
2022/08/15 14:05:16;;;;;;;2.97;1.63;;;;;;;37.27;25.97;98046.94;6185469;23;20174;-88
2022/08/15 14:07:46;;;;;;;3.28;1.73;;;;;;;37.67;25.94;98049.56;6185817;23;20247;-88
2022/08/15 14:10:23;;;;;;;4.22;1.95;;;;;;;37.93;25.57;98051.09;6184232;23;20590;-90
2022/08/15 14:12:50;;;;;;;3.45;1.50;;;;;;;37.47;23.76;98055.13;6185454;23;20173;-91
2022/08/15 14:15:16;;;;;;;3.30;1.40;;;;;;;37.43;23.57;98057.59;6185469;23;20227;-90
2022/08/15 14:17:44;;;;;;;3.70;1.30;;;;;;;37.41;23.75;98048.03;6185633;23;20514;-91
2022/08/15 14:20:21;;;;;;;3.85;2.03;;;;;;;37.52;23.80;98049.63;6183700;23;20166;-90
2022/08/15 14:22:46;;;;;;;6.18;2.47;;;;;;;37.57;24.22;98046.88;6185799;23;20134;-91
2022/08/15 14:25:13;;;;;;;4.15;1.85;;;;;;;37.69;24.13;98033.69;6185594;23;20480;-91
2022/08/15 14:27:44;;;;;;;4.85;1.65;;;;;;;37.42;23.75;98042.28;6185287;23;20150;-91
2022/08/15 14:30:12;;;;;;;2.58;1.10;;;;;;;37.37;23.37;98052.41;6185436;23;20134;-91
2022/08/15 14:32:38;;;;;;;3.88;1.50;;;;;;;37.44;23.54;98047.47;6185636;23;20178;-90
2022/08/15 14:35:05;;;;;;;4.13;1.88;;;;;;;37.63;23.36;98040.28;6185393;23;20151;-90
2022/08/15 14:37:31;;;;;;;3.55;1.52;;;;;;;37.62;23.69;98044.13;6185714;23;20147;-91
2022/08/15 14:39:58;;;;;;;2.40;1.30;;;;;;;37.91;24.01;98030.56;6183948;23;20160;-89
2022/08/15 14:42:24;;;;;;;2.63;1.42;;;;;;;38.18;22.98;98033.69;6185288;23;20146;-90
2022/08/15 14:44:54;;;;;;;2.35;1.55;;;;;;;37.89;22.55;98044.56;6185970;23;20150;-92
2022/08/15 14:47:20;;;;;;;3.47;1.50;;;;;;;37.48;24.11;98049.38;6185930;23;20174;-91
2022/08/15 14:49:47;;;;;;;5.47;2.13;;;;;;;37.61;23.05;98052.63;6185805;23;20562;-91
2022/08/15 14:52:15;;;;;;;2.28;1.30;;;;;;;37.57;23.16;98051.53;6159827;23;20197;-91
2022/08/15 14:54:42;;;;;;;2.45;1.17;;;;;;;37.58;23.26;98050.44;6158620;23;20237;-90
2022/08/15 14:57:09;;;;;;;3.50;1.58;;;;;;;37.55;23.66;98047.13;6185765;23;20150;-90
2022/08/15 14:59:35;;;;;;;3.58;1.45;;;;;;;37.53;22.73;98045.78;6159735;23;20162;-90
2022/08/15 15:02:05;;;;;;;2.83;1.30;;;;;;;37.62;22.80;98048.75;6186070;23;20147;-91
2022/08/15 15:04:33;;;;;;;2.50;1.20;;;;;;;37.52;23.15;98049.63;6160774;23;20170;-91
2022/08/15 15:07:00;;;;;;;3.15;1.70;;;;;;;37.57;22.39;98046.06;6185734;23;20547;-90
2022/08/15 15:09:25;;;;;;;2.78;1.33;;;;;;;37.45;22.74;98049.09;6159996;23;20150;-89
2022/08/15 15:11:51;;;;;;;2.33;1.40;;;;;;;37.60;22.71;98060.00;6185869;23;20174;-90
2022/08/15 15:14:17;;;;;;;2.45;1.33;;;;;;;37.62;23.05;98056.97;6186031;23;20569;-91
2022/08/15 15:16:43;;;;;;;2.78;1.30;;;;;;;37.76;22.79;98055.25;6185330;23;20445;-90
2022/08/15 15:19:13;;;;;;;3.28;1.23;;;;;;;37.93;22.19;98056.56;6185281;23;20147;-91
2022/08/15 15:21:41;;;;;;;2.13;1.10;;;;;;;37.62;22.46;98066.00;6184162;23;20563;-92
2022/08/15 15:24:07;;;;;;;2.08;1.05;;;;;;;37.81;22.32;98056.06;6180901;23;20143;-89
2022/08/15 15:26:33;;;;;;;2.83;1.30;;;;;;;37.89;22.88;98055.50;6183426;23;20189;-89
2022/08/15 15:28:58;;;;;;;2.63;1.15;;;;;;;37.91;22.88;98053.28;6182969;23;20160;-90
2022/08/15 15:31:28;;;;;;;4.53;1.83;;;;;;;37.59;22.71;98058.34;6180751;23;20155;-89
2022/08/15 15:33:53;;;;;;;2.60;1.17;;;;;;;37.31;23.18;98062.53;6183631;23;20162;-87
2022/08/15 15:36:27;;;;;;;3.15;1.80;;;;;;;37.44;23.49;98059.25;6158242;23;20158;-89
2022/08/15 15:39:26;;;;;;;3.35;1.48;;;;;;;37.58;23.36;98064.91;6158642;23;20228;-90
2022/08/15 15:42:03;;;;;;;2.08;1.00;;;;;;;37.77;22.73;98060.44;6143046;23;20457;-89
2022/08/15 15:47:54;;;;;;;3.97;1.40;;;;;;;37.96;22.42;98061.47;6165817;23;20605;-90
2022/08/15 15:50:43;;;;;;;4.38;2.08;;;;;;;37.84;23.13;98063.69;6160232;23;20582;-92
2022/08/15 15:53:40;;;;;;;4.32;2.00;;;;;;;37.32;23.67;98063.34;6186078;23;20166;-89
2022/08/15 15:56:24;;;;;;;4.68;2.72;;;;;;;37.14;24.19;98067.50;6158976;23;20237;-92
2022/08/15 15:58:52;;;;;;;4.95;2.22;;;;;;;37.03;24.08;98068.59;6185554;23;20221;-92
2022/08/15 16:01:28;;;;;;;9.20;2.90;;;;;;;36.72;24.17;98070.53;6185470;23;20220;-91
2022/08/15 16:04:14;;;;;;;5.03;2.42;;;;;;;36.68;24.54;98072.19;6160731;23;20237;-91
2022/08/15 16:07:06;;;;;;;5.25;2.53;;;;;;;36.58;24.81;98069.47;6159466;23;20165;-91
2022/08/15 16:10:05;;;;;;;;;;;;;;;;;;;;;
2022/08/15 16:12:40;;;;;;;3.60;1.92;;;;;;;36.21;24.90;98072.41;6185876;23;20253;-91
2022/08/15 16:15:49;;;;;;;4.68;2.65;;;;;;;36.19;24.85;98068.31;6160710;23;20158;-90
2022/08/15 16:18:44;;;;;;;6.18;3.28;;;;;;;35.95;25.66;98075.31;6184754;23;20650;-90
2022/08/15 16:21:16;;;;;;;3.80;2.03;;;;;;;36.00;25.52;98078.91;6184224;23;20150;-88
2022/08/15 16:23:56;;;;;;;11.43;7.65;;;;;;;35.91;25.75;98080.50;6184773;23;20135;-89
2022/08/15 16:26:35;;;;;;;4.35;2.50;;;;;;;35.97;25.84;98075.88;6158594;23;20470;-89
2022/08/15 16:29:35;;;;;;;6.13;2.70;;;;;;;35.81;25.97;98079.66;6186262;23;20134;-89
2022/08/15 16:32:05;;;;;;;4.60;2.25;;;;;;;35.81;25.76;98076.91;6147232;23;20257;-90
2022/08/15 16:34:37;;;;;;;4.28;2.15;;;;;;;35.61;26.21;98089.41;6185106;23;20232;-91
2022/08/15 16:37:12;;;;;;;4.70;2.47;;;;;;;35.61;26.32;98094.03;6185031;23;20151;-89
2022/08/15 16:40:02;;;;;;;4.78;2.22;;;;;;;35.60;26.32;98087.75;6160632;23;20169;-89
2022/08/15 16:43:20;;;;;;;3.50;1.83;;;;;;;35.44;25.84;98091.47;6158283;23;20158;-90
2022/08/15 16:49:54;;;;;;;3.53;1.75;;;;;;;35.46;26.11;98089.28;5904481;24;20666;-89
2022/08/15 16:52:50;;;;;;;3.17;1.92;;;;;;;35.40;26.02;98093.09;5975917;24;20334;-88
2022/08/15 16:59:10;;;;;;;3.72;1.45;;;;;;;35.21;26.15;98093.78;5871964;24;20168;-89
2022/08/15 17:02:09;;;;;;;6.55;1.60;;;;;;;35.14;26.32;98088.59;5849432;24;20192;-90
2022/08/15 17:05:12;;;;;;;;;;;;;;;;;;;;;
2022/08/15 17:08:04;;;;;;;4.50;1.95;;;;;;;34.87;26.60;98096.00;5871433;24;20224;-90
2022/08/15 17:10:46;;;;;;;2.92;1.65;;;;;;;34.76;26.34;98092.38;5960960;24;20201;-90
2022/08/15 17:13:53;;;;;;;2.90;1.60;;;;;;;34.50;26.50;98093.22;5958263;24;20270;-90
2022/08/15 17:17:02;;;;;;;3.97;2.00;;;;;;;34.38;27.12;98084.41;5981440;24;20163;-90
2022/08/15 17:19:48;;;;;;;3.05;1.73;;;;;;;34.30;26.92;98099.31;5981401;24;20169;-90
2022/08/15 17:22:53;;;;;;;3.70;1.73;;;;;;;34.15;27.12;98101.03;6021399;23;20153;-90
2022/08/15 17:25:37;;;;;;;3.88;1.80;;;;;;;34.01;27.09;98106.06;6080373;23;20217;-89
2022/08/15 17:28:14;;;;;;;3.40;1.95;;;;;;;33.95;27.43;98109.78;6186228;23;20516;-89
2022/08/15 17:30:52;;;;;;;4.03;1.90;;;;;;;33.99;27.32;98102.75;6159237;23;20150;-90
2022/08/15 17:33:42;;;;;;;5.65;2.85;;;;;;;33.98;27.19;98115.53;6159437;23;20625;-89
2022/08/15 17:36:11;;;;;;;6.32;2.85;;;;;;;33.88;27.79;98111.88;6159162;23;20150;-90
2022/08/15 17:38:43;;;;;;;4.53;2.50;;;;;;;33.78;27.63;98128.09;6159417;23;20162;-89
2022/08/15 17:41:16;;;;;;;4.80;2.55;;;;;;;33.66;27.93;98124.66;6185145;23;20142;-90
2022/08/15 17:43:54;;;;;;;3.20;1.95;;;;;;;33.66;28.01;98130.09;6185700;23;20241;-90
2022/08/15 17:46:50;;;;;;;6.15;1.98;;;;;;;33.53;27.89;98125.81;6186059;23;20158;-90
2022/08/15 17:49:23;;;;;;;4.70;1.80;;;;;;;33.41;28.69;98134.06;6136076;23;20634;-90
2022/08/15 17:52:05;;;;;;;5.18;2.28;;;;;;;33.30;28.23;98136.91;6185633;23;20201;-90
2022/08/15 17:54:43;;;;;;;5.28;2.53;;;;;;;33.18;28.71;98137.00;6185384;23;20156;-90
2022/08/15 17:58:03;;;;;;;5.10;2.55;;;;;;;33.29;29.30;98136.09;6159650;23;20158;-90
2022/08/15 18:00:34;;;;;;;6.82;2.83;;;;;;;33.38;29.13;98142.75;6112758;23;20229;-90
2022/08/15 18:03:06;;;;;;;4.55;2.30;;;;;;;33.34;29.17;98143.47;6185972;23;20131;-90
2022/08/15 18:05:32;;;;;;;3.85;2.05;;;;;;;33.08;29.21;98150.44;6160200;23;20298;-90
2022/08/15 18:08:04;;;;;;;5.57;2.45;;;;;;;33.01;29.28;98140.78;6185945;23;20170;-89
2022/08/15 18:10:51;;;;;;;4.13;2.13;;;;;;;32.91;30.01;98149.59;6159210;23;20150;-90
2022/08/15 18:13:22;;;;;;;4.15;2.30;;;;;;;32.74;30.37;98143.34;6159311;23;20185;-89
2022/08/15 18:16:09;;;;;;;4.10;2.05;;;;;;;32.57;30.32;98151.47;6185542;23;20177;-90
2022/08/15 18:18:57;;;;;;;5.07;2.47;;;;;;;32.40;30.57;98158.72;6159997;23;20158;-90
2022/08/15 18:21:31;;;;;;;7.97;2.28;;;;;;;32.23;30.88;98161.38;6159724;23;20161;-90
2022/08/15 18:23:58;;;;;;;4.93;2.30;;;;;;;32.10;30.94;98175.22;6185706;23;20130;-90
2022/08/15 18:26:54;;;;;;;5.63;2.75;;;;;;;31.94;31.34;98176.00;6159466;23;20161;-89
2022/08/15 18:29:21;;;;;;;4.20;1.88;;;;;;;31.77;32.06;98175.06;6159458;23;20157;-89
2022/08/15 18:32:17;;;;;;;4.80;1.92;;;;;;;31.69;32.36;98175.44;6185627;23;20173;-90
2022/08/15 18:34:50;;;;;;;6.63;2.15;;;;;;;31.55;32.79;98179.50;6185847;23;20208;-89
2022/08/15 18:37:58;;;;;;;4.18;2.40;;;;;;;31.52;32.42;98182.66;6160304;23;20150;-90
2022/08/15 18:43:20;;;;;;;4.20;2.10;;;;;;;31.24;32.85;98194.16;6185278;23;20461;-90
2022/08/15 18:45:51;;;;;;;4.65;2.55;;;;;;;31.15;33.16;98192.88;6158453;23;20594;-89
2022/08/15 18:49:16;;;;;;;3.33;1.90;;;;;;;31.02;33.59;98190.41;6159301;23;20581;-89
2022/08/15 18:52:59;;;;;;;;;;;;;;;;;;;;;
2022/08/15 18:55:56;;;;;;;4.75;2.10;;;;;;;30.66;34.27;98201.38;6184523;23;20265;-89
2022/08/15 18:58:56;;;;;;;4.53;2.20;;;;;;;30.57;34.25;98206.28;6144641;23;20170;-90
2022/08/15 19:02:07;;;;;;;6.03;2.65;;;;;;;30.41;34.87;98213.16;6159438;23;20213;-90
2022/08/15 19:05:21;;;;;;;4.65;2.40;;;;;;;30.25;34.20;98221.03;6185553;23;20141;-90
2022/08/15 19:08:00;;;;;;;5.43;2.97;;;;;;;30.25;34.64;98226.44;6059572;23;20160;-90
2022/08/15 19:10:44;;;;;;;4.72;2.20;;;;;;;30.31;34.57;98225.53;6044045;23;20164;-90
2022/08/15 19:17:06;;;;;;;6.28;2.65;;;;;;;30.22;34.59;98230.44;6186580;23;20170;-89
2022/08/15 19:20:00;;;;;;;5.63;2.08;;;;;;;30.08;35.34;98230.84;6128812;23;20162;-90
2022/08/15 19:22:28;;;;;;;4.95;2.70;;;;;;;29.99;35.46;98234.88;6160811;23;20150;-90
2022/08/15 19:24:59;;;;;;;6.53;2.65;;;;;;;29.83;35.73;98237.13;6160896;23;20169;-89
2022/08/15 19:27:46;;;;;;;4.60;2.10;;;;;;;29.75;35.50;98240.09;6161650;23;20170;-89
2022/08/15 19:30:52;;;;;;;5.63;2.38;;;;;;;29.71;36.14;98236.22;6187567;23;20135;-89
2022/08/15 19:33:30;;;;;;;4.25;1.95;;;;;;;29.65;36.41;98236.25;6116756;23;20204;-90
2022/08/15 19:36:15;;;;;;;9.15;2.17;;;;;;;29.60;36.67;98236.09;6186559;23;20177;-89
2022/08/15 19:39:07;;;;;;;4.40;2.20;;;;;;;29.45;37.18;98236.47;6186515;23;20139;-89
2022/08/15 19:41:58;;;;;;;4.65;2.28;;;;;;;29.45;37.00;98233.78;6186254;23;20229;-89
2022/08/15 19:44:24;;;;;;;5.75;2.55;;;;;;;29.42;37.24;98228.81;6186664;23;20136;-89
2022/08/15 19:47:24;;;;;;;4.32;2.35;;;;;;;29.29;37.57;98223.53;6160499;23;20161;-90
2022/08/15 19:52:47;;;;;;;5.13;2.42;;;;;;;29.14;38.08;98228.44;6185974;23;20181;-89
2022/08/15 19:55:22;;;;;;;4.43;2.40;;;;;;;29.03;38.08;98229.97;6157670;23;20194;-89
2022/08/15 19:58:05;;;;;;;3.92;2.08;;;;;;;28.82;38.62;98224.09;6184315;23;20142;-89
2022/08/15 20:00:47;;;;;;;9.35;2.88;;;;;;;28.81;38.76;98231.38;6184735;23;20234;-89
2022/08/15 20:03:22;;;;;;;6.40;2.55;;;;;;;28.89;38.72;98228.41;6160175;23;20501;-89
2022/08/15 20:06:02;;;;;;;4.07;2.30;;;;;;;28.89;39.27;98230.28;6159802;23;20586;-89
2022/08/15 20:08:36;;;;;;;4.18;2.40;;;;;;;28.76;39.71;98233.06;6186227;23;20158;-89
2022/08/15 20:11:14;;;;;;;3.70;2.15;;;;;;;28.69;39.87;98232.28;6160710;23;20169;-89
2022/08/15 20:14:01;;;;;;;3.95;2.13;;;;;;;28.61;39.79;98241.44;6160746;23;20178;-90
2022/08/15 20:16:39;;;;;;;3.72;1.77;;;;;;;28.55;40.16;98245.00;6160651;23;20142;-89
2022/08/15 20:19:26;;;;;;;6.43;2.63;;;;;;;28.36;40.67;98251.31;6186578;23;20134;-90
2022/08/15 20:22:18;;;;;;;4.85;2.78;;;;;;;28.26;41.42;98238.28;6186981;23;20570;-90
2022/08/15 20:24:59;;;;;;;4.85;2.63;;;;;;;28.32;41.12;98242.84;6158781;23;20602;-90
2022/08/15 20:27:33;;;;;;;4.95;2.70;;;;;;;28.39;41.03;98245.47;6160294;23;20601;-90
2022/08/15 20:30:13;;;;;;;4.88;2.30;;;;;;;28.39;41.16;98246.31;6184916;23;20139;-89
2022/08/15 20:33:05;;;;;;;4.63;2.38;;;;;;;28.29;41.09;98243.25;6157670;23;20241;-89
2022/08/15 20:35:40;;;;;;;5.35;2.50;;;;;;;28.31;40.99;98241.16;6184288;23;20135;-89
2022/08/15 20:38:13;;;;;;;4.78;2.45;;;;;;;28.22;41.82;98253.25;6157017;23;20161;-89
2022/08/15 20:41:28;;;;;;;;;;;;;;;;;;;;;